Latest Weather Observations for Lismore Airport

IDN60801

Issued at 5:05 am EDT Saturday 31 January 2015 (issued every 30 minutes, with the page automatically refreshed every 10 minutes)

About weather observations | Map of weather stations | Latest weather observations for NSW | Other Formats
Station Details ID: 058214 Name: LISMORE AIRPORT AWS Lat: -28.83 Lon: 153.26 Height: 9.21 m
Data from the previous 72 hours. | See also: Recent months for locations in New South Wales
Date/Time
EDT
Temp
°C
App
Temp
°C
Dew
Point
Rel
Hum
%
Delta-T
°C
Wind Press
QNH
hPa
Press
MSL
hPa
Rain
since 9 am
mm
Dir
 
Spd
km/h
Gust
km/h
Spd
kts
Gust
kts
31/05:00am 16.8 18.9 16.2 96 0.4 CALM 0 0 0 0 1005.6 1005.6 0.0
31/04:30am 17.5 19.9 17.0 97 0.3 CALM 0 0 0 0 1005.2 1005.2 0.0
31/04:00am 17.3 18.2 16.7 96 0.4 N 7 9 4 5 1005.0 1005.0 0.0
31/03:30am 18.1 19.0 17.6 97 0.3 N 9 11 5 6 1004.9 1004.9 0.0
31/03:00am 17.5 18.1 16.7 95 0.5 N 9 13 5 7 1005.1 1005.1 0.0
31/02:30am 18.3 18.5 17.7 96 0.4 N 13 15 7 8 1005.2 1005.2 0.0
31/02:00am 18.6 18.9 17.9 96 0.4 N 13 15 7 8 1005.3 1005.3 0.0
31/01:30am 18.9 18.9 18.2 96 0.4 N 15 19 8 10 1005.7 1005.7 0.0
31/01:00am 19.0 19.0 18.2 95 0.5 N 15 17 8 9 1005.9 1005.9 0.0
31/12:30am 19.3 19.3 18.1 93 0.7 N 15 17 8 9 1006.0 1006.0 0.0
31/12:00am 19.4 19.7 17.9 91 0.9 N 13 15 7 8 1006.3 1006.3 0.0
 
Date/Time
EDT
Temp
°C
App
Temp
°C
Dew
Point
Rel
Hum
%
Delta-T
°C
Wind Press
QNH
hPa
Press
MSL
hPa
Rain
since 9 am
mm
Dir
 
Spd
km/h
Gust
km/h
Spd
kts
Gust
kts
30/11:30pm 20.2 20.3 18.3 89 1.2 N 15 17 8 9 1006.4 1006.4 0.0
30/11:00pm 20.6 20.6 18.0 85 1.6 N 15 20 8 11 1006.5 1006.5 0.0
30/10:30pm 21.9 21.8 18.7 82 2.0 NNE 17 20 9 11 1006.4 1006.4 0.0
30/10:00pm 22.5 22.8 18.7 79 2.4 NNE 15 19 8 10 1006.2 1006.2 0.0
30/09:30pm 22.8 23.0 18.6 77 2.7 NNE 15 20 8 11 1006.0 1006.0 0.0
30/09:00pm 23.3 23.5 18.6 75 3.0 NNE 15 20 8 11 1005.8 1005.8 0.0
30/08:30pm 23.9 23.7 18.5 72 3.4 NNE 17 22 9 12 1005.5 1005.5 0.0
30/08:00pm 24.6 24.0 18.5 69 3.9 NE 19 26 10 14 1005.3 1005.3 0.0
30/07:30pm 25.3 24.6 18.7 67 4.2 NE 20 30 11 16 1005.0 1005.0 0.0
30/07:00pm 26.3 25.3 18.9 63 4.8 NE 22 30 12 16 1004.6 1004.6 0.0
30/06:30pm 26.6 25.7 19.0 63 4.9 NE 22 32 12 17 1004.3 1004.3 0.0
30/06:00pm 27.3 26.9 19.4 62 5.1 NE 20 33 11 18 1004.1 1004.1 0.0
30/05:30pm 27.8 27.0 19.3 60 5.5 NE 22 32 12 17 1004.2 1004.2 0.0
30/05:00pm 27.7 26.2 19.5 61 5.3 NE 26 35 14 19 1004.3 1004.3 0.0
30/04:30pm 27.7 26.2 19.5 61 5.3 NE 26 37 14 20 1004.7 1004.7 0.0
30/04:00pm 27.8 26.6 19.3 60 5.5 NE 24 33 13 18 1005.0 1005.0 0.0
30/03:30pm 28.4 28.0 18.8 56 6.2 NE 19 26 10 14 1005.3 1005.3 0.0
30/03:00pm 27.3 27.9 18.6 59 5.6 ENE 13 19 7 10 1005.7 1005.7 0.0
30/02:30pm 28.3 28.2 15.9 47 7.6 NNE 11 19 6 10 1005.9 1005.9 0.0
30/02:00pm 29.1 29.7 15.2 42 8.5 N 6 20 3 11 1006.4 1006.4 0.0
30/01:30pm 29.1 29.1 15.2 42 8.5 NNW 9 15 5 8 1007.0 1007.0 0.0
30/01:00pm 28.3 29.4 17.2 51 7.0 NW 7 13 4 7 1007.5 1007.5 0.0
30/12:30pm 27.2 27.7 17.4 55 6.2 N 11 17 6 9 1008.1 1008.1 0.0
30/12:00pm 27.1 28.2 18.1 58 5.7 NW 9 15 5 8 1008.5 1008.5 0.0
30/11:30am 25.9 26.3 18.1 62 4.9 N 13 20 7 11 1008.9 1008.9 0.0
30/11:00am 25.4 25.7 17.1 60 5.2 NNW 11 19 6 10 1009.0 1009.0 0.0
30/10:30am 24.7 26.4 17.2 63 4.7 NW 4 9 2 5 1009.3 1009.3 0.0
30/10:00am 23.5 24.0 15.5 60 4.8 NNW 7 11 4 6 1009.5 1009.5 0.0
30/09:30am 23.3 24.0 15.6 62 4.6 SSW 6 11 3 6 1009.8 1009.8 0.0
30/09:00am 22.3 22.8 15.6 66 4.0 S 7 11 4 6 1009.9 1009.9 0.0
30/08:30am 21.3 23.7 16.9 76 2.7 CALM 0 6 0 3 1010.0 1010.0 0.0
30/08:00am 19.8 20.8 17.8 88 1.2 N 9 11 5 6 1009.9 1009.9 0.0
30/07:30am 18.5 19.3 17.3 93 0.7 N 9 13 5 7 1009.7 1009.7 0.0
30/07:17am 18.1 18.9 17.3 95 0.5 NNW 9 13 5 7 1009.5 1009.5 0.0
30/07:00am 17.6 18.7 17.0 96 0.4 NW 7 11 4 6 1009.5 1009.5 0.0
30/06:47am 17.4 17.7 17.1 98 0.2 NNW 11 15 6 8 1009.6 1009.6 0.0
30/06:30am 16.3 17.0 15.5 95 0.5 N 6 11 3 6 1009.3 1009.3 0.0
30/06:15am 16.6 18.5 15.8 95 0.5 CALM 0 0 0 0 1009.2 1009.2 0.0
30/06:00am 16.4 17.8 15.4 94 0.6 NNW 2 6 1 3 1009.0 1009.0 0.0
30/05:57am 16.3 17.3 15.3 94 0.6 NNW 4 6 2 3 1009.0 1009.0 0.0
30/05:30am 16.6 18.4 15.6 94 0.6 CALM 0 0 0 0 1008.8 1008.8 0.0
30/05:00am 17.2 19.1 15.7 91 0.9 CALM 0 0 0 0 1009.0 1009.0 0.0
30/04:59am 17.3 19.2 15.8 91 0.9 CALM 0 0 0 0 1009.0 1009.0 0.0
30/04:40am 17.9 19.9 15.9 88 1.2 CALM 0 0 0 0 1009.1 1009.1 0.0
30/04:30am 18.9 21.3 17.0 89 1.1 CALM 0 0 0 0 1009.0 1009.0 0.0
30/04:00am 19.3 21.7 17.1 87 1.3 CALM 0 0 0 0 1009.1 1009.1 0.0
30/03:35am 19.7 22.5 18.0 90 1.0 CALM 0 0 0 0 1009.4 1009.4 0.0
30/03:30am 19.6 22.3 17.7 89 1.2 CALM 0 0 0 0 1009.4 1009.4 0.0
30/03:23am 19.5 22.0 17.3 87 1.3 CALM 0 0 0 0 1009.5 1009.5 0.0
30/03:00am 19.4 21.8 17.0 86 1.5 CALM 0 0 0 0 1009.4 1009.4 0.0
30/02:30am 19.7 20.9 16.9 84 1.7 NW 6 9 3 5 1009.7 1009.7 0.0
30/02:27am 19.7 20.8 16.7 83 1.8 WNW 6 9 3 5 1009.7 1009.7 0.0
30/02:06am 19.8 22.0 16.6 82 1.9 CALM 0 0 0 0 1009.9 1009.9 0.0
30/02:00am 20.0 22.4 17.0 83 1.8 CALM 0 0 0 0 1009.9 1009.9 0.0
30/01:30am 20.2 22.1 16.6 80 2.2 ESE 2 6 1 3 1010.1 1010.1 0.0
30/01:00am 20.5 20.8 16.1 76 2.6 S 9 11 5 6 1010.3 1010.3 0.0
30/12:30am 20.4 20.8 16.4 78 2.4 SSW 9 13 5 7 1010.6 1010.6 0.0
30/12:00am 20.4 22.7 16.8 80 2.2 CALM 0 0 0 0 1010.7 1010.7 0.0
 
Date/Time
EDT
Temp
°C
App
Temp
°C
Dew
Point
Rel
Hum
%
Delta-T
°C
Wind Press
QNH
hPa
Press
MSL
hPa
Rain
since 9 am
mm
Dir
 
Spd
km/h
Gust
km/h
Spd
kts
Gust
kts
29/11:30pm 20.5 22.8 16.7 79 2.3 CALM 0 0 0 0 1010.8 1010.8 0.0
29/11:00pm 21.0 23.2 16.4 75 2.8 CALM 0 0 0 0 1010.7 1010.7 0.0
29/10:30pm 21.7 24.3 17.5 77 2.6 CALM 0 0 0 0 1010.6 1010.6 0.0
29/10:00pm 21.5 22.9 17.3 77 2.6 SW 6 7 3 4 1010.5 1010.5 0.0
29/09:30pm 21.5 24.0 17.3 77 2.6 CALM 0 0 0 0 1010.2 1010.2 0.0
29/09:00pm 21.7 24.2 17.3 76 2.7 CALM 0 6 0 3 1010.1 1010.1 0.0
29/08:30pm 22.0 24.0 16.9 73 3.1 SE 2 7 1 4 1009.8 1009.8 0.0
29/08:03pm 21.8 22.1 16.1 70 3.4 SSE 9 13 5 7 1009.5 1009.5 0.0
29/08:00pm 21.9 22.2 16.0 69 3.6 SE 9 13 5 7 1009.4 1009.4 0.0
29/07:44pm 22.5 22.1 16.1 67 3.9 SE 13 19 7 10 1009.1 1009.1 0.0
29/07:30pm 22.9 21.6 15.7 64 4.3 SE 17 24 9 13 1009.0 1009.0 0.0
29/07:00pm 23.9 22.8 16.4 63 4.6 ESE 17 24 9 13 1008.4 1008.4 0.0
29/06:30pm 24.7 23.1 16.4 60 5.1 SE 20 30 11 16 1008.0 1008.0 0.0
29/06:00pm 24.8 23.2 16.0 58 5.4 SE 19 28 10 15 1007.7 1007.7 0.0
29/05:30pm 25.7 23.9 16.0 55 5.9 SE 20 30 11 16 1007.3 1007.3 0.0
29/05:00pm 25.9 23.9 15.6 53 6.3 SE 20 28 11 15 1007.2 1007.2 0.0
29/04:30pm 26.1 24.3 15.5 52 6.4 ESE 19 26 10 14 1007.4 1007.4 0.0
29/04:00pm 26.2 24.3 15.3 51 6.6 ESE 19 28 10 15 1007.4 1007.4 0.0
29/03:30pm 25.8 24.0 15.5 53 6.2 SE 19 26 10 14 1007.5 1007.5 0.0
29/03:00pm 27.2 26.5 17.4 55 6.2 SE 17 22 9 12 1007.7 1007.7 0.0
29/02:30pm 25.8 25.1 16.4 56 5.8 SE 15 20 8 11 1007.9 1007.9 0.0
29/02:00pm 26.4 26.7 14.5 48 7.1 SSE 6 13 3 7 1008.1 1008.1 0.0
29/01:30pm 25.9 25.2 15.3 52 6.4 SSE 13 20 7 11 1008.5 1008.5 0.0
29/01:00pm 25.7 24.8 14.8 51 6.5 SW 13 19 7 10 1008.8 1008.8 0.0
29/12:30pm 25.4 24.6 15.1 53 6.2 SSE 13 24 7 13 1009.1 1009.1 0.0
29/12:00pm 25.6 24.6 15.6 54 6.1 SSE 15 24 8 13 1009.4 1009.4 0.0
29/11:30am 24.6 23.8 15.2 55 5.6 SSW 13 19 7 10 1009.5 1009.5 0.0
29/11:00am 24.5 22.9 15.1 55 5.6 S 17 24 9 13 1009.9 1009.9 0.0
29/10:30am 23.9 22.4 15.4 59 5.1 SSW 17 26 9 14 1010.0 1010.0 0.0
29/10:00am 23.5 21.4 14.8 58 5.2 S 19 24 10 13 1010.1 1010.1 0.0
29/09:30am 22.8 20.8 14.9 61 4.7 SSW 19 28 10 15 1010.0 1010.0 0.0
29/09:00am 21.6 20.5 13.0 58 4.9 SW 11 22 6 12 1010.0 1010.0 6.0
29/08:30am 22.1 20.1 14.0 60 4.7 SW 17 24 9 13 1010.0 1010.0 6.0
29/08:00am 21.0 19.2 12.2 57 4.9 SW 13 22 7 12 1009.7 1009.7 6.0
29/07:30am 20.2 19.6 12.4 61 4.4 SW 7 11 4 6 1009.5 1009.5 6.0
29/07:00am 18.7 17.6 12.0 65 3.7 SW 9 13 5 7 1009.2 1009.2 6.0
29/06:30am 18.1 16.2 11.7 66 3.5 SW 13 17 7 9 1008.6 1008.6 6.0
29/06:00am 18.2 16.7 12.0 67 3.4 SW 11 15 6 8 1008.3 1008.3 6.0
29/05:30am 18.7 17.0 12.5 67 3.5 SW 13 20 7 11 1008.3 1008.3 6.0
29/05:00am 18.7 16.6 12.5 67 3.5 SW 15 20 8 11 1008.2 1008.2 6.0
29/04:30am 18.7 17.9 12.9 69 3.3 SSW 9 15 5 8 1007.9 1007.9 6.0
29/04:00am 18.7 17.3 13.3 71 3.1 SW 13 17 7 9 1008.0 1008.0 6.0
29/03:30am 18.9 18.1 14.0 73 2.8 SW 11 17 6 9 1008.2 1008.2 6.0
29/03:00am 18.9 18.2 14.4 75 2.6 SW 11 17 6 9 1008.2 1008.2 6.0
29/02:30am 19.3 19.0 14.3 73 2.9 WSW 9 15 5 8 1008.5 1008.5 6.0
29/02:00am 18.9 18.8 15.0 78 2.3 SW 9 13 5 7 1008.8 1008.8 6.0
29/01:30am 18.6 18.9 15.1 80 2.0 SW 7 11 4 6 1008.8 1008.8 6.0
29/01:00am 19.2 18.8 15.3 78 2.3 WSW 11 15 6 8 1009.2 1009.2 6.0
29/12:30am 19.5 19.0 15.8 79 2.2 SW 13 17 7 9 1009.1 1009.1 6.0
29/12:00am 20.1 19.1 15.7 76 2.6 SSW 15 19 8 10 1009.1 1009.1 5.8
 
Date/Time
EDT
Temp
°C
App
Temp
°C
Dew
Point
Rel
Hum
%
Delta-T
°C
Wind Press
QNH
hPa
Press
MSL
hPa
Rain
since 9 am
mm
Dir
 
Spd
km/h
Gust
km/h
Spd
kts
Gust
kts
28/11:30pm 20.2 19.5 15.4 74 2.8 SW 13 19 7 10 1009.4 1009.4 5.8
28/11:00pm 20.1 19.3 16.1 78 2.4 SSW 15 19 8 10 1009.5 1009.5 5.8
28/10:30pm 20.1 18.3 15.9 77 2.5 SSW 20 26 11 14 1009.2 1009.2 5.8
28/10:00pm 19.9 19.3 16.7 82 1.9 SW 15 19 8 10 1008.9 1008.9 5.8
28/09:30pm 20.7 20.1 16.7 78 2.4 SW 15 20 8 11 1009.0 1009.0 5.8
28/09:00pm 21.0 21.6 17.6 81 2.1 WSW 11 15 6 8 1008.9 1008.9 5.8
28/08:30pm 21.0 21.2 17.6 81 2.1 SW 13 19 7 10 1008.7 1008.7 5.8
28/08:00pm 21.0 22.0 18.6 86 1.5 SSW 11 13 6 7 1008.5 1008.5 5.8
28/07:30pm 21.5 23.0 18.9 85 1.6 WSW 9 11 5 6 1008.1 1008.1 5.8
28/07:00pm 21.8 23.7 19.0 84 1.8 SW 7 9 4 5 1007.8 1007.8 5.8
28/06:30pm 21.9 23.7 18.7 82 2.0 SSW 7 9 4 5 1007.8 1007.8 5.8
28/06:00pm 21.6 22.5 18.4 82 2.0 SSW 11 15 6 8 1007.8 1007.8 5.8
28/05:30pm 21.3 21.2 18.7 85 1.6 S 17 22 9 12 1007.5 1007.5 5.8
28/05:00pm 20.7 20.3 19.0 90 1.1 SSW 19 26 10 14 1007.7 1007.7 5.8
28/04:30pm 20.7 19.9 19.2 91 0.9 SSW 22 28 12 15 1007.6 1007.6 5.8
28/04:00pm 20.7 19.1 18.3 86 1.5 S 24 39 13 21 1007.7 1007.7 5.8
28/03:30pm 22.1 19.4 19.3 84 1.8 SSE 32 44 17 24 1007.4 1007.4 5.8
28/03:21pm 23.6 23.5 19.9 80 2.4 SSW 20 33 11 18 1007.3 1007.3 5.8
28/03:00pm 21.7 24.0 19.4 87 1.5 SSW 6 9 3 5 1007.2 1007.2 5.8
28/02:41pm 21.1 23.3 19.7 92 0.9 SW 7 9 4 5 1007.4 1007.4 5.8
28/02:31pm 20.4 21.9 18.9 91 0.9 SW 9 15 5 8 1007.4 1007.4 5.8
28/02:30pm 20.4 22.0 19.1 92 0.8 SW 9 20 5 11 1007.4 1007.4 5.8
28/02:21pm 20.5 21.0 19.2 92 0.8 S 15 26 8 14 1007.7 1007.7 5.0
28/02:18pm 20.6 21.4 19.1 91 0.9 S 13 26 7 14 1007.8 1007.8 4.8
28/02:16pm 20.7 22.2 19.0 90 1.1 S 9 20 5 11 1007.8 1007.8 4.2
28/02:00pm 21.1 23.5 19.7 92 0.9 E 6 13 3 7 1007.9 1007.9 3.4
28/01:53pm 21.2 24.7 19.5 90 1.1 CALM 0 0 0 0 1007.8 1007.8 3.2
28/01:30pm 21.3 24.4 19.4 89 1.2 ESE 2 9 1 5 1007.9 1007.9 3.0
28/01:17pm 21.2 23.7 19.8 92 0.9 NW 6 9 3 5 1008.0 1008.0 3.0
28/01:00pm 20.4 23.8 19.4 94 0.6 CALM 0 0 0 0 1008.1 1008.1 3.0
28/12:30pm 20.2 23.0 18.9 92 0.8 NE 2 7 1 4 1008.4 1008.4 2.4
28/12:08pm 19.9 22.2 18.6 92 0.8 N 4 9 2 5 1008.5 1008.5 1.8
28/12:07pm 19.8 22.1 18.5 92 0.8 N 4 9 2 5 1008.6 1008.6 1.8
28/12:00pm 19.7 21.5 18.4 92 0.8 N 6 9 3 5 1008.6 1008.6 1.8
28/11:38am 19.6 21.1 18.1 91 0.9 WNW 7 9 4 5 1008.5 1008.5 1.8
28/11:30am 19.6 21.3 18.1 91 0.9 WNW 6 9 3 5 1008.5 1008.5 1.8
28/11:06am 19.5 20.8 17.6 89 1.2 NW 7 13 4 7 1008.7 1008.7 0.6
28/11:00am 19.6 20.5 17.6 88 1.2 WNW 9 13 5 7 1008.7 1008.7 0.2
28/10:30am 20.1 21.0 17.5 85 1.6 WSW 9 15 5 8 1008.5 1008.5 0.0
28/10:00am 19.8 21.6 17.4 86 1.5 W 4 7 2 4 1008.3 1008.3 0.0
28/09:30am 19.3 20.5 17.3 88 1.2 WSW 7 13 4 7 1008.0 1008.0 0.0
28/09:00am 18.8 20.3 16.6 87 1.3 WSW 4 9 2 5 1008.0 1008.0 29.8
28/08:30am 18.7 19.3 16.8 89 1.1 SW 9 15 5 8 1007.8 1007.8 29.8
28/08:00am 18.5 19.1 16.7 89 1.1 SSW 9 13 5 7 1007.7 1007.7 29.8
28/07:41am 18.4 19.3 16.7 90 1.0 SSW 7 15 4 8 1007.6 1007.6 29.8
28/07:30am 18.3 19.6 17.0 92 0.8 NNW 6 13 3 7 1007.5 1007.5 29.8
28/07:00am 17.8 19.7 16.8 94 0.6 ESE 2 9 1 5 1007.2 1007.2 29.8
28/06:30am 17.5 18.6 16.7 95 0.5 SW 6 13 3 7 1006.8 1006.8 29.8
28/06:11am 17.5 19.5 16.9 96 0.4 W 2 11 1 6 1006.6 1006.6 29.8
28/06:00am 17.7 20.1 17.1 96 0.4 CALM 0 0 0 0 1006.4 1006.4 29.8
28/05:52am 17.8 20.3 17.3 97 0.3 CALM 0 0 0 0 1006.4 1006.4 29.8
28/05:30am 17.7 19.8 17.1 96 0.4 W 2 7 1 4 1006.7 1006.7 29.4
28/05:24am 17.5 19.5 16.9 96 0.4 WNW 2 7 1 4 1006.6 1006.6 29.4

Other Formats:

Comma delimited format used in spreadsheet applications
http://www.bom.gov.au/fwo/IDN60801/IDN60801.94572.axf

JavaScript Object Notation format (JSON) in row-major order
http://www.bom.gov.au/fwo/IDN60801/IDN60801.94572.json